Time;durP1;ratioP1;P1;durP2;ratioP2;P2;SDS_P1;SDS_P2;PMS_P1;PMS_P2;Temp;Humidity;BMP_temperature;BMP_pressure;BME280_temperature;BME280_humidity;BME280_pressure;Samples;Min_cycle;Max_cycle;Signal;HPM_P1;HPM_P2
2023/04/03 00:00:38;;;;;;;2.50;1.92;;;;;;;;;;5081014;28;20197;-68
2023/04/03 00:03:05;;;;;;;2.30;2.20;;;;;;;;;;5081476;28;20201;-68
2023/04/03 00:05:32;;;;;;;2.83;2.40;;;;;;;;;;5081562;28;20504;-68
2023/04/03 00:07:58;;;;;;;2.10;2.00;;;;;;;;;;5084970;28;20531;-68
2023/04/03 00:10:24;;;;;;;2.05;1.88;;;;;;;;;;5084924;28;20415;-68
2023/04/03 00:12:50;;;;;;;2.22;1.92;;;;;;;;;;5084941;28;20214;-68
2023/04/03 00:15:17;;;;;;;2.00;1.90;;;;;;;;;;5084851;28;20200;-68
2023/04/03 00:17:43;;;;;;;1.90;1.90;;;;;;;;;;5085171;28;20439;-68
2023/04/03 00:20:11;;;;;;;1.98;1.85;;;;;;;;;;5084681;28;20220;-68
2023/04/03 00:22:37;;;;;;;2.22;2.13;;;;;;;;;;5084960;28;20235;-68
2023/04/03 00:25:04;;;;;;;2.38;2.28;;;;;;;;;;5084771;28;20533;-68
2023/04/03 00:27:30;;;;;;;2.30;2.15;;;;;;;;;;5085120;28;20244;-69
2023/04/03 00:29:56;;;;;;;2.50;2.17;;;;;;;;;;5084391;28;20234;-68
2023/04/03 00:32:22;;;;;;;2.35;2.17;;;;;;;;;;5084851;28;20205;-68
2023/04/03 00:34:49;;;;;;;3.22;2.58;;;;;;;;;;5084800;28;20201;-68
2023/04/03 00:37:16;;;;;;;2.28;2.08;;;;;;;;;;5084510;28;20230;-68
2023/04/03 00:39:43;;;;;;;2.35;2.25;;;;;;;;;;5084134;28;20216;-68
2023/04/03 00:42:09;;;;;;;2.13;1.98;;;;;;;;;;5084323;28;20204;-68
2023/04/03 00:44:53;;;;;;;3.15;2.40;;;;;;;;;;5084427;28;20404;-68
2023/04/03 00:47:19;;;;;;;3.30;2.00;;;;;;;;;;5063192;28;20211;-68
2023/04/03 00:49:46;;;;;;;1.70;1.70;;;;;;;;;;5084201;28;20199;-68
2023/04/03 00:52:15;;;;;;;2.13;1.90;;;;;;;;;;5084300;28;20243;-68
2023/04/03 00:54:43;;;;;;;2.50;2.40;;;;;;;;;;5084637;28;20200;-68
2023/04/03 00:57:09;;;;;;;2.38;2.17;;;;;;;;;;5084288;28;20200;-68
2023/04/03 00:59:39;;;;;;;2.42;2.25;;;;;;;;;;5083990;28;20222;-69
2023/04/03 01:02:05;;;;;;;3.95;2.13;;;;;;;;;;5084291;28;20204;-68
2023/04/03 01:04:33;;;;;;;4.05;2.50;;;;;;;;;;5084284;28;20424;-68
2023/04/03 01:07:00;;;;;;;2.40;2.22;;;;;;;;;;5083918;28;20196;-68
2023/04/03 01:09:26;;;;;;;2.50;2.13;;;;;;;;;;5083793;28;20192;-68
2023/04/03 01:11:54;;;;;;;2.00;1.90;;;;;;;;;;5084288;28;20203;-68
2023/04/03 01:14:20;;;;;;;2.30;2.20;;;;;;;;;;5083742;28;20204;-68
2023/04/03 01:16:52;;;;;;;2.05;1.95;;;;;;;;;;5083617;28;20200;-68
2023/04/03 01:19:20;;;;;;;3.72;1.80;;;;;;;;;;5083712;28;20239;-68
2023/04/03 01:22:03;;;;;;;2.10;2.00;;;;;;;;;;5083566;28;20549;-68
2023/04/03 01:24:34;;;;;;;2.42;2.10;;;;;;;;;;5083880;28;20196;-68
2023/04/03 01:27:04;;;;;;;2.30;2.20;;;;;;;;;;5083704;28;20218;-68
2023/04/03 01:29:30;;;;;;;2.17;2.08;;;;;;;;;;5083617;28;20271;-68
2023/04/03 01:31:59;;;;;;;2.35;2.25;;;;;;;;;;5083511;28;20196;-68
2023/04/03 01:34:26;;;;;;;2.33;2.17;;;;;;;;;;5083304;28;20273;-68
2023/04/03 01:36:53;;;;;;;2.10;1.98;;;;;;;;;;5083065;28;20216;-68
2023/04/03 01:39:19;;;;;;;2.33;2.22;;;;;;;;;;5083365;28;20220;-68
2023/04/03 01:41:45;;;;;;;3.15;2.28;;;;;;;;;;5083386;28;20219;-68
2023/04/03 01:44:12;;;;;;;2.50;2.00;;;;;;;;;;5083046;28;20578;-68
2023/04/03 01:46:38;;;;;;;2.55;2.38;;;;;;;;;;5083413;28;20196;-68
2023/04/03 01:49:05;;;;;;;3.45;2.60;;;;;;;;;;5083097;28;20500;-68
2023/04/03 01:51:32;;;;;;;2.05;1.95;;;;;;;;;;5083075;28;20234;-68
2023/04/03 01:53:59;;;;;;;2.33;2.22;;;;;;;;;;5083161;28;20196;-68
2023/04/03 01:56:26;;;;;;;2.35;2.15;;;;;;;;;;5082996;28;20205;-68
2023/04/03 01:58:52;;;;;;;2.30;2.20;;;;;;;;;;5082997;28;20197;-68
2023/04/03 02:01:18;;;;;;;2.17;2.00;;;;;;;;;;5082640;28;20242;-68
2023/04/03 02:03:45;;;;;;;2.10;2.03;;;;;;;;;;5082767;28;20204;-68
2023/04/03 02:06:12;;;;;;;2.40;2.20;;;;;;;;;;5082931;28;20200;-68
2023/04/03 02:08:39;;;;;;;2.25;2.00;;;;;;;;;;5082984;28;20242;-68
2023/04/03 02:11:05;;;;;;;2.20;2.10;;;;;;;;;;5082634;28;20394;-68
2023/04/03 02:13:31;;;;;;;2.30;2.10;;;;;;;;;;5082576;28;20261;-68
2023/04/03 02:15:58;;;;;;;2.30;2.20;;;;;;;;;;5083129;28;20508;-68
2023/04/03 02:18:25;;;;;;;2.13;2.03;;;;;;;;;;5082429;28;20204;-68
2023/04/03 02:20:51;;;;;;;2.08;1.98;;;;;;;;;;5082343;28;20235;-68
2023/04/03 02:23:18;;;;;;;2.30;2.20;;;;;;;;;;5082658;28;20462;-68
2023/04/03 02:25:45;;;;;;;2.10;2.00;;;;;;;;;;5082649;28;20200;-68
2023/04/03 02:28:11;;;;;;;2.28;2.17;;;;;;;;;;5082245;28;20500;-68
2023/04/03 02:30:37;;;;;;;2.30;2.15;;;;;;;;;;5081739;28;20231;-68
2023/04/03 02:33:03;;;;;;;2.10;2.10;;;;;;;;;;5082694;28;20537;-68
2023/04/03 02:35:30;;;;;;;2.00;1.90;;;;;;;;;;5082388;28;20208;-67
2023/04/03 02:37:56;;;;;;;2.20;2.10;;;;;;;;;;5082413;28;20242;-67
2023/04/03 02:40:24;;;;;;;2.33;2.22;;;;;;;;;;5081726;28;20246;-68
2023/04/03 02:42:50;;;;;;;2.20;2.08;;;;;;;;;;5082287;28;20268;-68
2023/04/03 02:45:16;;;;;;;2.65;1.92;;;;;;;;;;5082198;28;20419;-68
2023/04/03 02:47:43;;;;;;;2.00;1.90;;;;;;;;;;5082446;28;20374;-68
2023/04/03 02:50:09;;;;;;;2.35;2.25;;;;;;;;;;5081971;28;20200;-68
2023/04/03 02:52:35;;;;;;;2.22;2.13;;;;;;;;;;5074117;28;20536;-68
2023/04/03 02:55:03;;;;;;;2.20;2.10;;;;;;;;;;5082131;28;20235;-68
2023/04/03 02:57:31;;;;;;;2.42;2.20;;;;;;;;;;5081941;28;20530;-68
2023/04/03 02:59:57;;;;;;;2.30;2.10;;;;;;;;;;5081578;28;20215;-68
2023/04/03 03:02:23;;;;;;;2.38;2.28;;;;;;;;;;5081883;28;20212;-68
2023/04/03 03:04:49;;;;;;;1.95;1.85;;;;;;;;;;5082106;28;20204;-68
2023/04/03 03:07:15;;;;;;;2.10;1.95;;;;;;;;;;5081863;28;20204;-68
2023/04/03 03:09:42;;;;;;;2.17;2.08;;;;;;;;;;5081680;28;20193;-68
2023/04/03 03:12:08;;;;;;;1.70;1.70;;;;;;;;;;5081713;28;20200;-68
2023/04/03 03:14:35;;;;;;;2.20;2.10;;;;;;;;;;5081718;28;20196;-68
2023/04/03 03:17:02;;;;;;;2.45;2.25;;;;;;;;;;5082032;28;20396;-68
2023/04/03 03:19:28;;;;;;;2.90;2.70;;;;;;;;;;5081467;28;20265;-68
2023/04/03 03:21:54;;;;;;;2.03;1.90;;;;;;;;;;5081740;28;20201;-68
2023/04/03 03:24:21;;;;;;;2.75;2.08;;;;;;;;;;5081723;28;20200;-68
2023/04/03 03:26:47;;;;;;;1.88;1.88;;;;;;;;;;5081610;28;20197;-68
2023/04/03 03:29:13;;;;;;;1.80;1.70;;;;;;;;;;5081349;28;20220;-68
2023/04/03 03:31:41;;;;;;;2.42;2.28;;;;;;;;;;5081893;28;20246;-68
2023/04/03 03:34:07;;;;;;;2.30;2.20;;;;;;;;;;5081777;28;20200;-68
2023/04/03 03:36:33;;;;;;;2.70;2.60;;;;;;;;;;5081683;28;20205;-68
2023/04/03 03:38:59;;;;;;;2.92;2.47;;;;;;;;;;5081610;28;20492;-68
2023/04/03 03:41:26;;;;;;;2.45;2.00;;;;;;;;;;5084201;28;20223;-68
2023/04/03 03:43:52;;;;;;;3.83;2.00;;;;;;;;;;5085541;28;20208;-68
2023/04/03 03:46:19;;;;;;;2.00;1.90;;;;;;;;;;5085470;28;20238;-68
2023/04/03 03:48:46;;;;;;;2.20;2.10;;;;;;;;;;5085866;28;20342;-68
2023/04/03 03:51:12;;;;;;;2.00;1.90;;;;;;;;;;5085381;28;20258;-68
2023/04/03 03:53:39;;;;;;;2.67;1.65;;;;;;;;;;5085389;28;20234;-68
2023/04/03 03:56:05;;;;;;;3.22;1.85;;;;;;;;;;5085273;28;20216;-68
2023/04/03 03:58:32;;;;;;;2.83;2.08;;;;;;;;;;5085443;28;20254;-68
2023/04/03 04:01:00;;;;;;;2.08;1.98;;;;;;;;;;5085062;28;20258;-68
2023/04/03 04:03:27;;;;;;;1.98;1.95;;;;;;;;;;5085236;28;20261;-68
2023/04/03 04:05:54;;;;;;;1.92;1.83;;;;;;;;;;5085439;28;20218;-68
2023/04/03 04:08:20;;;;;;;2.17;1.98;;;;;;;;;;5085085;28;20542;-68
2023/04/03 04:10:47;;;;;;;2.20;2.05;;;;;;;;;;5084739;28;20231;-68
2023/04/03 04:13:13;;;;;;;2.42;1.95;;;;;;;;;;5084949;28;20204;-68
2023/04/03 04:15:40;;;;;;;1.80;1.80;;;;;;;;;;5084957;28;20200;-68
2023/04/03 04:18:06;;;;;;;2.90;1.90;;;;;;;;;;5085046;28;20238;-68
2023/04/03 04:20:32;;;;;;;1.70;1.60;;;;;;;;;;5084622;28;20273;-68
2023/04/03 04:23:00;;;;;;;1.75;1.65;;;;;;;;;;5084854;28;20365;-68
2023/04/03 04:25:26;;;;;;;1.92;1.83;;;;;;;;;;5084660;28;20515;-68
2023/04/03 04:27:52;;;;;;;3.00;1.75;;;;;;;;;;5085061;28;20223;-68
2023/04/03 04:30:19;;;;;;;1.52;1.52;;;;;;;;;;5084446;28;20201;-68
2023/04/03 04:32:45;;;;;;;2.05;1.85;;;;;;;;;;5084895;28;20254;-68
2023/04/03 04:35:12;;;;;;;2.28;1.70;;;;;;;;;;5085138;28;20207;-68
2023/04/03 04:37:38;;;;;;;1.63;1.63;;;;;;;;;;5084558;28;20208;-68
2023/04/03 04:40:06;;;;;;;1.88;1.77;;;;;;;;;;5084233;28;20239;-69
2023/04/03 04:42:33;;;;;;;2.33;2.10;;;;;;;;;;5085229;28;20200;-69
2023/04/03 04:44:59;;;;;;;2.15;1.95;;;;;;;;;;5084830;28;20200;-69
2023/04/03 04:47:25;;;;;;;1.73;1.73;;;;;;;;;;5084470;28;20200;-69
2023/04/03 04:49:51;;;;;;;1.80;1.70;;;;;;;;;;5084802;28;20231;-69
2023/04/03 04:52:18;;;;;;;2.65;1.83;;;;;;;;;;5084033;28;20219;-69
2023/04/03 04:54:45;;;;;;;2.28;1.80;;;;;;;;;;5085105;28;20204;-68
2023/04/03 04:57:13;;;;;;;2.03;1.80;;;;;;;;;;5084795;28;20204;-68
2023/04/03 04:59:39;;;;;;;1.75;1.65;;;;;;;;;;5084177;28;20204;-68
2023/04/03 05:02:06;;;;;;;2.08;1.95;;;;;;;;;;5084501;28;20269;-68
2023/04/03 05:04:33;;;;;;;1.88;1.77;;;;;;;;;;5084369;28;20250;-68
2023/04/03 05:06:59;;;;;;;1.85;1.77;;;;;;;;;;5084590;28;20519;-68
2023/04/03 05:09:25;;;;;;;2.13;2.03;;;;;;;;;;5084350;28;20268;-68
2023/04/03 05:11:51;;;;;;;2.20;2.10;;;;;;;;;;5084468;28;20267;-68
2023/04/03 05:14:19;;;;;;;1.65;1.65;;;;;;;;;;5083859;28;20461;-69
2023/04/03 05:16:45;;;;;;;1.92;1.83;;;;;;;;;;5076186;28;20400;-69
2023/04/03 05:19:12;;;;;;;2.42;2.13;;;;;;;;;;5083694;28;20204;-69
2023/04/03 05:21:38;;;;;;;1.67;1.58;;;;;;;;;;5083892;28;20436;-69
2023/04/03 05:24:05;;;;;;;2.75;1.63;;;;;;;;;;5083772;28;20500;-69
2023/04/03 05:26:31;;;;;;;2.00;1.90;;;;;;;;;;5083856;28;20205;-69
2023/04/03 05:28:57;;;;;;;1.70;1.60;;;;;;;;;;5083500;28;20216;-69
2023/04/03 05:31:25;;;;;;;1.70;1.60;;;;;;;;;;5083380;28;20306;-69
2023/04/03 05:33:52;;;;;;;1.67;1.67;;;;;;;;;;5084103;28;20208;-68
2023/04/03 05:36:18;;;;;;;2.10;2.00;;;;;;;;;;5083376;28;20395;-68
2023/04/03 05:38:44;;;;;;;1.70;1.58;;;;;;;;;;5083328;28;20253;-68
2023/04/03 05:41:10;;;;;;;1.77;1.70;;;;;;;;;;5083305;28;20254;-68
2023/04/03 05:43:38;;;;;;;2.75;1.60;;;;;;;;;;5083354;28;20201;-68
2023/04/03 05:46:05;;;;;;;1.75;1.65;;;;;;;;;;5083396;28;20196;-68
2023/04/03 05:48:32;;;;;;;1.67;1.67;;;;;;;;;;5083177;28;20439;-69
2023/04/03 05:50:59;;;;;;;1.60;1.60;;;;;;;;;;5082847;28;20505;-69
2023/04/03 05:53:27;;;;;;;1.80;1.70;;;;;;;;;;5083351;28;20204;-69
2023/04/03 05:55:54;;;;;;;1.75;1.65;;;;;;;;;;5083149;28;20196;-69
2023/04/03 05:58:20;;;;;;;1.70;1.63;;;;;;;;;;5083552;28;20260;-69
2023/04/03 06:00:46;;;;;;;1.63;1.63;;;;;;;;;;5083011;28;20452;-69
2023/04/03 06:03:13;;;;;;;1.45;1.42;;;;;;;;;;5082955;28;20218;-69
2023/04/03 06:05:41;;;;;;;1.55;1.45;;;;;;;;;;5082888;28;20246;-69
2023/04/03 06:08:08;;;;;;;1.80;1.70;;;;;;;;;;5083467;28;20200;-69
2023/04/03 06:10:35;;;;;;;2.60;1.70;;;;;;;;;;5083106;28;20200;-69
2023/04/03 06:13:01;;;;;;;2.38;1.67;;;;;;;;;;5083294;28;20515;-68
2023/04/03 06:15:28;;;;;;;1.73;1.73;;;;;;;;;;5082933;28;20204;-68
2023/04/03 06:17:54;;;;;;;2.85;1.63;;;;;;;;;;5083085;28;20234;-68
2023/04/03 06:20:22;;;;;;;1.80;1.70;;;;;;;;;;5082955;28;20279;-69
2023/04/03 06:22:50;;;;;;;1.92;1.83;;;;;;;;;;5076325;28;20213;-60
2023/04/03 06:25:17;;;;;;;1.88;1.77;;;;;;;;;;5074991;28;20216;-61
2023/04/03 06:27:43;;;;;;;4.20;1.75;;;;;;;;;;5077392;28;20228;-61
2023/04/03 06:30:10;;;;;;;1.80;1.70;;;;;;;;;;5077721;28;20535;-61
2023/04/03 06:32:38;;;;;;;2.00;1.83;;;;;;;;;;5077509;28;20494;-61
2023/04/03 06:35:05;;;;;;;2.25;2.00;;;;;;;;;;5078124;28;20212;-61
2023/04/03 06:37:32;;;;;;;2.30;1.48;;;;;;;;;;5077578;28;20212;-60
2023/04/03 06:40:01;;;;;;;1.55;1.48;;;;;;;;;;5078121;28;20209;-60
2023/04/03 06:42:27;;;;;;;2.17;2.08;;;;;;;;;;5074939;28;20223;-60
2023/04/03 06:44:53;;;;;;;2.05;1.77;;;;;;;;;;5072494;28;20204;-60
2023/04/03 06:47:19;;;;;;;1.70;1.70;;;;;;;;;;5074310;28;20213;-60
2023/04/03 06:49:46;;;;;;;2.20;1.83;;;;;;;;;;5069317;28;20216;-60
2023/04/03 06:52:12;;;;;;;2.17;2.08;;;;;;;;;;5072768;28;20212;-62
2023/04/03 06:54:39;;;;;;;1.83;1.80;;;;;;;;;;5074421;28;20275;-60
2023/04/03 06:57:07;;;;;;;2.00;1.90;;;;;;;;;;5071941;28;20335;-61
2023/04/03 06:59:33;;;;;;;2.88;1.50;;;;;;;;;;5074083;28;20212;-60
2023/04/03 07:01:59;;;;;;;2.00;1.90;;;;;;;;;;5074285;28;20578;-60
2023/04/03 07:04:26;;;;;;;2.08;1.88;;;;;;;;;;5074592;28;20212;-60
2023/04/03 07:06:52;;;;;;;3.28;2.05;;;;;;;;;;5073646;28;20258;-60
2023/04/03 07:09:19;;;;;;;1.88;1.77;;;;;;;;;;5070820;28;20212;-60
2023/04/03 07:11:45;;;;;;;2.17;1.83;;;;;;;;;;5075049;28;20417;-60
2023/04/03 07:14:13;;;;;;;3.22;2.00;;;;;;;;;;5074028;28;20257;-60
2023/04/03 07:16:39;;;;;;;1.75;1.75;;;;;;;;;;5073942;28;20220;-60
2023/04/03 07:19:05;;;;;;;2.38;2.17;;;;;;;;;;5074864;28;20455;-59
2023/04/03 07:21:31;;;;;;;2.90;1.75;;;;;;;;;;5075486;28;20304;-60
2023/04/03 07:23:58;;;;;;;1.98;1.88;;;;;;;;;;5075039;28;20246;-59
2023/04/03 07:26:25;;;;;;;5.15;1.95;;;;;;;;;;5074519;28;20270;-59
2023/04/03 07:28:51;;;;;;;9.57;2.40;;;;;;;;;;5076066;28;20452;-59
2023/04/03 07:31:19;;;;;;;4.57;1.90;;;;;;;;;;5076665;28;20253;-59
2023/04/03 07:33:45;;;;;;;2.67;1.80;;;;;;;;;;5075728;28;20212;-60
2023/04/03 07:36:15;;;;;;;2.85;2.10;;;;;;;;;;5075690;28;20231;-60
2023/04/03 07:38:41;;;;;;;2.20;1.80;;;;;;;;;;5076907;28;20258;-60
2023/04/03 07:41:12;;;;;;;2.50;2.30;;;;;;;;;;5076961;28;20561;-60
2023/04/03 07:43:38;;;;;;;1.85;1.75;;;;;;;;;;5079539;28;20281;-60
2023/04/03 07:46:05;;;;;;;1.67;1.63;;;;;;;;;;5080090;28;20216;-60
2023/04/03 07:48:34;;;;;;;1.90;1.80;;;;;;;;;;5069245;28;20255;-60
2023/04/03 07:51:01;;;;;;;2.17;1.90;;;;;;;;;;5079051;28;20204;-60
2023/04/03 07:53:27;;;;;;;1.75;1.65;;;;;;;;;;5077316;28;20226;-60
2023/04/03 07:55:56;;;;;;;3.38;2.13;;;;;;;;;;5079078;28;20270;-60
2023/04/03 07:58:22;;;;;;;3.63;2.10;;;;;;;;;;5077998;28;20247;-60
2023/04/03 08:00:49;;;;;;;1.95;1.75;;;;;;;;;;5077746;28;20228;-60
2023/04/03 08:03:17;;;;;;;1.90;1.70;;;;;;;;;;5079707;28;20213;-59
2023/04/03 08:05:45;;;;;;;1.98;1.92;;;;;;;;;;5078781;28;20228;-59
2023/04/03 08:08:12;;;;;;;2.67;2.00;;;;;;;;;;5077853;28;20220;-60
2023/04/03 08:10:39;;;;;;;4.47;2.08;;;;;;;;;;5078271;28;20220;-60
2023/04/03 08:13:07;;;;;;;4.45;2.17;;;;;;;;;;5072106;28;20287;-60
2023/04/03 08:15:33;;;;;;;2.20;1.77;;;;;;;;;;5075245;28;20546;-59
2023/04/03 08:18:00;;;;;;;2.17;1.95;;;;;;;;;;5077725;28;20208;-60
2023/04/03 08:20:27;;;;;;;1.88;1.77;;;;;;;;;;5078156;28;20243;-59
2023/04/03 08:22:55;;;;;;;3.08;2.00;;;;;;;;;;5077801;28;20574;-59
2023/04/03 08:25:21;;;;;;;2.53;1.83;;;;;;;;;;5078050;28;20213;-59
2023/04/03 08:27:47;;;;;;;2.00;1.90;;;;;;;;;;5080149;28;20232;-59
2023/04/03 08:30:14;;;;;;;2.00;1.90;;;;;;;;;;5079505;28;20413;-59
2023/04/03 08:32:41;;;;;;;2.30;1.92;;;;;;;;;;5081195;28;20212;-60
2023/04/03 08:35:08;;;;;;;2.83;2.40;;;;;;;;;;5081281;28;20602;-59
2023/04/03 08:37:35;;;;;;;2.92;1.80;;;;;;;;;;5081601;28;20254;-59
2023/04/03 08:40:03;;;;;;;4.45;2.08;;;;;;;;;;5081476;28;20216;-59
2023/04/03 08:42:37;;;;;;;2.03;1.80;;;;;;;;;;5081353;28;20232;-60
2023/04/03 08:45:07;;;;;;;2.13;1.77;;;;;;;;;;5075417;28;20524;-60
2023/04/03 08:47:38;;;;;;;2.25;1.98;;;;;;;;;;5080735;28;20212;-63
2023/04/03 08:50:07;;;;;;;2.72;2.05;;;;;;;;;;5080323;28;20217;-62
2023/04/03 08:52:37;;;;;;;2.58;1.90;;;;;;;;;;5074978;28;20204;-62
2023/04/03 08:55:05;;;;;;;5.82;1.98;;;;;;;;;;5080636;28;20216;-62
2023/04/03 08:57:35;;;;;;;2.92;1.75;;;;;;;;;;5080203;28;20238;-62
2023/04/03 09:00:03;;;;;;;6.53;1.75;;;;;;;;;;5076959;28;20208;-62
2023/04/03 09:02:32;;;;;;;3.70;2.10;;;;;;;;;;5077215;28;20238;-62
2023/04/03 09:04:58;;;;;;;2.25;1.90;;;;;;;;;;5075123;28;20209;-62
2023/04/03 09:07:31;;;;;;;1.73;1.63;;;;;;;;;;5081052;28;20445;-62
2023/04/03 09:10:01;;;;;;;2.35;1.85;;;;;;;;;;5077562;28;20415;-62
2023/04/03 09:12:32;;;;;;;2.55;1.85;;;;;;;;;;5080229;28;20310;-62
2023/04/03 09:15:02;;;;;;;2.33;2.08;;;;;;;;;;5072260;28;20230;-62
2023/04/03 09:17:36;;;;;;;1.73;1.60;;;;;;;;;;5080730;28;20212;-62
2023/04/03 09:20:07;;;;;;;1.60;1.50;;;;;;;;;;5080008;28;20216;-62
2023/04/03 09:22:34;;;;;;;1.70;1.60;;;;;;;;;;5077051;28;20232;-62
2023/04/03 09:25:03;;;;;;;1.63;1.50;;;;;;;;;;5081035;28;20208;-59
2023/04/03 09:27:31;;;;;;;1.95;1.65;;;;;;;;;;5080515;28;20232;-59
2023/04/03 09:29:57;;;;;;;2.38;1.52;;;;;;;;;;5079772;28;20246;-60
2023/04/03 09:32:26;;;;;;;1.67;1.58;;;;;;;;;;5079534;28;20216;-60
2023/04/03 09:34:54;;;;;;;1.50;1.40;;;;;;;;;;5079789;28;20417;-62
2023/04/03 09:37:35;;;;;;;1.45;1.20;;;;;;;;;;5075962;28;20208;-62
2023/04/03 09:40:01;;;;;;;3.40;1.35;;;;;;;;;;5073593;28;20228;-63
2023/04/03 09:42:27;;;;;;;3.28;1.80;;;;;;;;;;5077858;28;20254;-63
2023/04/03 09:44:57;;;;;;;3.00;1.60;;;;;;;;;;5080019;28;20541;-60
2023/04/03 09:47:25;;;;;;;1.58;1.45;;;;;;;;;;5077055;28;20448;-60
2023/04/03 09:49:51;;;;;;;1.50;1.40;;;;;;;;;;5078906;28;20216;-60
2023/04/03 09:52:21;;;;;;;1.70;1.60;;;;;;;;;;5079191;28;20209;-60
2023/04/03 09:54:47;;;;;;;1.58;1.48;;;;;;;;;;5088190;28;20471;-60
2023/04/03 09:57:14;;;;;;;2.17;1.60;;;;;;;;;;5080239;28;20520;-60
2023/04/03 09:59:43;;;;;;;2.50;1.42;;;;;;;;;;5078232;28;20209;-60
2023/04/03 10:02:22;;;;;;;1.88;1.45;;;;;;;;;;5080187;28;20244;-60
2023/04/03 10:04:48;;;;;;;5.10;1.67;;;;;;;;;;5080622;28;20212;-59
2023/04/03 10:07:29;;;;;;;1.55;1.45;;;;;;;;;;5079895;28;20278;-60
2023/04/03 10:09:57;;;;;;;1.98;1.55;;;;;;;;;;5077964;28;20242;-60
2023/04/03 10:12:23;;;;;;;1.98;1.65;;;;;;;;;;5080791;28;20219;-59
2023/04/03 10:14:55;;;;;;;1.60;1.48;;;;;;;;;;5081464;28;20204;-60
2023/04/03 10:17:25;;;;;;;1.70;1.60;;;;;;;;;;5079720;28;20614;-60
2023/04/03 10:19:53;;;;;;;3.15;1.50;;;;;;;;;;5079467;28;20273;-61
2023/04/03 10:22:21;;;;;;;2.83;1.50;;;;;;;;;;5080394;28;20286;-61
2023/04/03 10:25:02;;;;;;;1.75;1.60;;;;;;;;;;5080381;28;20240;-61
2023/04/03 10:27:36;;;;;;;2.13;1.67;;;;;;;;;;5080728;28;20239;-61
2023/04/03 10:30:09;;;;;;;3.85;1.50;;;;;;;;;;5074791;28;20261;-61
2023/04/03 10:32:56;;;;;;;1.50;1.27;;;;;;;;;;5073270;28;20216;-61
2023/04/03 10:35:30;;;;;;;1.85;1.75;;;;;;;;;;5067276;28;20208;-60
2023/04/03 10:38:04;;;;;;;3.35;1.20;;;;;;;;;;5075440;28;20208;-60
2023/04/03 10:40:32;;;;;;;1.45;1.30;;;;;;;;;;5079515;28;20527;-60
2023/04/03 10:43:02;;;;;;;1.70;1.60;;;;;;;;;;5080232;28;20269;-60
2023/04/03 10:45:31;;;;;;;1.80;1.70;;;;;;;;;;5078815;28;20217;-60
2023/04/03 10:48:02;;;;;;;2.15;1.50;;;;;;;;;;5078027;28;20237;-61
2023/04/03 10:50:36;;;;;;;2.67;1.40;;;;;;;;;;5076532;28;20216;-60
2023/04/03 10:53:05;;;;;;;2.90;1.55;;;;;;;;;;5073939;28;20261;-60
2023/04/03 10:55:34;;;;;;;1.73;1.50;;;;;;;;;;5076087;28;20250;-60
2023/04/03 10:58:02;;;;;;;2.38;1.20;;;;;;;;;;5075574;28;20215;-60
2023/04/03 11:00:34;;;;;;;1.20;1.20;;;;;;;;;;5075295;28;20458;-60
2023/04/03 11:03:01;;;;;;;5.20;1.75;;;;;;;;;;5073877;28;20220;-60
2023/04/03 11:05:32;;;;;;;1.67;1.27;;;;;;;;;;5073744;28;20250;-60
2023/04/03 11:08:03;;;;;;;1.83;1.63;;;;;;;;;;5075108;28;20382;-59
2023/04/03 11:10:36;;;;;;;2.05;1.30;;;;;;;;;;5075088;28;20216;-60
2023/04/03 11:13:03;;;;;;;2.35;1.40;;;;;;;;;;5075564;28;20393;-60
2023/04/03 11:15:31;;;;;;;1.83;1.73;;;;;;;;;;5075727;28;20258;-60
2023/04/03 11:17:59;;;;;;;1.20;1.20;;;;;;;;;;5077415;28;20269;-58
2023/04/03 11:20:27;;;;;;;1.50;1.40;;;;;;;;;;5075711;28;20260;-59
2023/04/03 11:22:58;;;;;;;1.23;1.17;;;;;;;;;;5074570;28;20228;-60
2023/04/03 11:25:27;;;;;;;1.63;1.33;;;;;;;;;;5076442;28;20220;-59
2023/04/03 11:27:56;;;;;;;2.22;1.63;;;;;;;;;;5075308;28;20543;-60
2023/04/03 11:30:24;;;;;;;1.15;1.10;;;;;;;;;;5074821;28;20212;-60
2023/04/03 11:33:00;;;;;;;2.58;1.45;;;;;;;;;;5075260;28;20247;-60
2023/04/03 11:35:27;;;;;;;1.30;1.23;;;;;;;;;;5076331;28;20215;-60
2023/04/03 11:37:54;;;;;;;1.50;1.25;;;;;;;;;;5075677;28;20387;-60
2023/04/03 11:40:23;;;;;;;1.70;1.40;;;;;;;;;;5074787;28;20212;-61
2023/04/03 11:42:52;;;;;;;0.93;0.93;;;;;;;;;;5074454;28;20354;-61
2023/04/03 11:45:32;;;;;;;1.48;1.20;;;;;;;;;;5074993;28;20213;-61
2023/04/03 11:47:59;;;;;;;1.35;1.30;;;;;;;;;;5074999;28;20579;-61
2023/04/03 11:50:32;;;;;;;1.60;1.50;;;;;;;;;;5075313;28;20205;-60
2023/04/03 11:53:00;;;;;;;1.92;1.20;;;;;;;;;;5074996;28;20543;-60
2023/04/03 11:55:59;;;;;;;2.88;1.60;;;;;;;;;;5074754;28;20209;-60
2023/04/03 11:58:28;;;;;;;1.45;1.35;;;;;;;;;;4990974;28;20249;-61
2023/04/03 12:00:58;;;;;;;2.30;1.13;;;;;;;;;;4993552;28;20211;-59
2023/04/03 12:03:48;;;;;;;1.23;1.17;;;;;;;;;;5032191;28;20605;-59
2023/04/03 12:06:33;;;;;;;1.75;1.30;;;;;;;;;;5077892;28;20235;-60
2023/04/03 12:09:00;;;;;;;1.95;1.40;;;;;;;;;;5079005;28;20212;-61
2023/04/03 12:11:29;;;;;;;1.25;1.15;;;;;;;;;;5078358;28;20426;-61
2023/04/03 12:14:04;;;;;;;1.25;1.17;;;;;;;;;;5077938;28;21038;-60
2023/04/03 12:16:33;;;;;;;2.83;1.30;;;;;;;;;;5079882;28;20223;-61
2023/04/03 12:19:03;;;;;;;1.30;1.20;;;;;;;;;;5080192;28;20221;-61
2023/04/03 12:21:47;;;;;;;3.80;1.27;;;;;;;;;;5078788;28;20500;-61
2023/04/03 12:24:25;;;;;;;2.25;1.30;;;;;;;;;;5076688;28;20236;-61
2023/04/03 12:26:52;;;;;;;1.77;1.17;;;;;;;;;;5075969;28;20247;-61
2023/04/03 12:29:22;;;;;;;1.13;1.10;;;;;;;;;;5078776;28;20212;-62
2023/04/03 12:31:54;;;;;;;1.55;1.45;;;;;;;;;;5078655;28;20201;-61
2023/04/03 12:34:39;;;;;;;1.40;1.30;;;;;;;;;;5076812;28;20399;-60
2023/04/03 12:37:09;;;;;;;3.28;1.35;;;;;;;;;;5079052;28;20254;-60
2023/04/03 12:39:56;;;;;;;1.80;1.23;;;;;;;;;;5076797;28;20254;-61
2023/04/03 12:42:33;;;;;;;1.15;1.10;;;;;;;;;;5070106;28;20306;-61
2023/04/03 12:45:03;;;;;;;1.25;1.15;;;;;;;;;;5077617;28;20216;-60
2023/04/03 12:47:32;;;;;;;1.67;1.50;;;;;;;;;;5075354;28;20208;-60
2023/04/03 12:50:00;;;;;;;1.20;1.20;;;;;;;;;;5079435;28;20519;-60
2023/04/03 12:52:34;;;;;;;1.40;1.33;;;;;;;;;;5078800;28;20228;-60
2023/04/03 12:55:03;;;;;;;2.55;1.40;;;;;;;;;;5078093;28;20306;-61
2023/04/03 12:57:30;;;;;;;1.60;1.50;;;;;;;;;;5078208;28;20526;-61
2023/04/03 12:59:56;;;;;;;1.42;1.33;;;;;;;;;;5077843;28;20208;-61
2023/04/03 13:02:26;;;;;;;2.28;1.20;;;;;;;;;;5076086;28;20232;-60
2023/04/03 13:04:52;;;;;;;1.55;1.45;;;;;;;;;;5077259;28;20215;-59
2023/04/03 13:07:25;;;;;;;1.17;1.17;;;;;;;;;;5077193;28;20435;-59
2023/04/03 13:09:59;;;;;;;2.55;1.48;;;;;;;;;;5075268;28;20218;-59
2023/04/03 13:12:26;;;;;;;3.47;1.20;;;;;;;;;;5077227;28;20524;-59
2023/04/03 13:14:53;;;;;;;3.00;1.50;;;;;;;;;;5077583;28;20451;-60
2023/04/03 13:17:19;;;;;;;2.92;1.40;;;;;;;;;;5075670;28;20215;-60
2023/04/03 13:19:47;;;;;;;2.72;1.60;;;;;;;;;;5077569;28;20600;-60
2023/04/03 13:22:20;;;;;;;1.27;1.17;;;;;;;;;;5078328;28;20209;-60
2023/04/03 13:24:48;;;;;;;1.17;1.13;;;;;;;;;;5077802;28;20501;-58
2023/04/03 13:27:15;;;;;;;1.13;1.13;;;;;;;;;;5077878;28;20246;-59
2023/04/03 13:29:41;;;;;;;1.58;1.23;;;;;;;;;;5077963;28;20212;-59
2023/04/03 13:32:08;;;;;;;1.35;1.30;;;;;;;;;;5078763;28;20649;-59
2023/04/03 13:34:36;;;;;;;15.50;9.00;;;;;;;;;;5080682;28;20204;-59
2023/04/03 13:37:04;;;;;;;1.60;1.50;;;;;;;;;;5078265;28;20208;-59
2023/04/03 13:39:32;;;;;;;1.23;1.23;;;;;;;;;;5077649;28;20231;-60
2023/04/03 13:42:01;;;;;;;1.33;1.23;;;;;;;;;;5077148;28;20254;-60
2023/04/03 13:44:30;;;;;;;1.35;1.35;;;;;;;;;;5074585;28;20224;-60
2023/04/03 13:46:58;;;;;;;3.15;1.20;;;;;;;;;;5076334;28;20208;-58
2023/04/03 13:49:31;;;;;;;1.30;1.20;;;;;;;;;;5077730;28;20496;-59
2023/04/03 13:51:57;;;;;;;1.55;1.45;;;;;;;;;;5078487;28;20208;-59
2023/04/03 13:54:26;;;;;;;1.10;1.10;;;;;;;;;;5077658;28;20250;-59
2023/04/03 13:56:54;;;;;;;1.63;1.38;;;;;;;;;;5078509;28;20516;-59
2023/04/03 13:59:24;;;;;;;1.33;1.30;;;;;;;;;;5076083;28;20246;-59
2023/04/03 14:01:53;;;;;;;1.65;1.42;;;;;;;;;;5076868;28;20282;-58
2023/04/03 14:04:21;;;;;;;1.35;1.33;;;;;;;;;;5076296;28;20450;-58
2023/04/03 14:06:48;;;;;;;4.20;1.35;;;;;;;;;;5076619;28;20283;-58
2023/04/03 14:09:15;;;;;;;1.60;1.50;;;;;;;;;;5074971;28;20215;-59
2023/04/03 14:11:42;;;;;;;1.73;1.50;;;;;;;;;;5077665;28;20208;-58
2023/04/03 14:14:12;;;;;;;1.55;1.42;;;;;;;;;;5078299;28;20212;-59
2023/04/03 14:16:40;;;;;;;1.50;1.40;;;;;;;;;;5077568;28;20523;-59
2023/04/03 14:19:07;;;;;;;2.78;1.77;;;;;;;;;;5077203;28;20246;-59
2023/04/03 14:21:33;;;;;;;2.58;1.90;;;;;;;;;;5078060;28;20446;-59
2023/04/03 14:24:01;;;;;;;2.88;1.67;;;;;;;;;;5075704;28;20232;-59
2023/04/03 14:26:30;;;;;;;1.67;1.30;;;;;;;;;;5075887;28;20317;-60
2023/04/03 14:28:57;;;;;;;1.60;1.50;;;;;;;;;;5073686;28;20457;-70
2023/04/03 14:31:24;;;;;;;1.38;1.27;;;;;;;;;;5075841;28;20207;-71
2023/04/03 14:33:50;;;;;;;1.13;1.00;;;;;;;;;;5075615;28;20645;-70
2023/04/03 14:36:19;;;;;;;1.83;1.70;;;;;;;;;;5077250;28;20216;-70
2023/04/03 14:38:45;;;;;;;2.17;1.40;;;;;;;;;;5076468;28;20208;-70
2023/04/03 14:41:12;;;;;;;1.95;1.70;;;;;;;;;;5075421;28;20208;-70
2023/04/03 14:43:39;;;;;;;1.30;1.30;;;;;;;;;;5075929;28;20224;-70
2023/04/03 14:46:11;;;;;;;1.83;1.45;;;;;;;;;;5074690;28;20236;-69
2023/04/03 14:48:37;;;;;;;3.47;1.77;;;;;;;;;;5075171;28;20250;-69